createdAt,value
2022-11-30T00:00:45.121Z,7.06
2022-11-30T00:01:45.149Z,6.67
2022-11-30T00:02:45.198Z,7.07
2022-11-30T00:03:45.111Z,7.07
2022-11-30T00:04:45.474Z,7.18
2022-11-30T00:05:45.114Z,6.98
2022-11-30T00:06:45.123Z,6.98
2022-11-30T00:07:45.150Z,7.06
2022-11-30T00:08:45.107Z,7.31
2022-11-30T00:09:45.108Z,7.08
2022-11-30T00:10:45.129Z,7.03
2022-11-30T00:11:45.115Z,7.04
2022-11-30T00:12:45.128Z,7.09
2022-11-30T00:13:45.120Z,7.14
2022-11-30T00:14:45.581Z,7.27
2022-11-30T00:15:45.139Z,7.34
2022-11-30T00:16:45.254Z,7.36
2022-11-30T00:17:45.121Z,7.33
2022-11-30T00:18:45.121Z,7.3
2022-11-30T00:19:45.123Z,7.29
2022-11-30T00:20:45.133Z,7.28
2022-11-30T00:21:45.133Z,7.09
2022-11-30T00:22:45.125Z,7.09
2022-11-30T00:23:45.117Z,7.11
2022-11-30T00:24:45.470Z,7.28
2022-11-30T00:25:45.110Z,7.25
2022-11-30T00:26:45.123Z,7.14
2022-11-30T00:27:45.118Z,7.49
2022-11-30T00:28:45.116Z,7.29
2022-11-30T00:29:45.127Z,7.38
2022-11-30T00:30:45.149Z,7.14
2022-11-30T00:31:45.133Z,6.85
2022-11-30T00:32:45.131Z,7.02
2022-11-30T00:33:45.130Z,7.01
2022-11-30T00:34:45.371Z,7.13
2022-11-30T00:35:45.125Z,7.04
2022-11-30T00:36:45.135Z,7.04
2022-11-30T00:37:45.133Z,7.3
2022-11-30T00:38:45.127Z,7.15
2022-11-30T00:39:45.124Z,7.24
2022-11-30T00:40:45.120Z,7.03
2022-11-30T00:41:45.136Z,6.98
2022-11-30T00:42:45.122Z,6.74
2022-11-30T00:43:45.122Z,7.05
2022-11-30T00:44:45.632Z,7.13
2022-11-30T00:45:45.163Z,6.96
2022-11-30T00:46:45.151Z,7.06
2022-11-30T00:47:45.112Z,6.85
2022-11-30T00:48:45.127Z,7.16
2022-11-30T00:49:45.118Z,7.11
2022-11-30T00:50:45.119Z,7.23
2022-11-30T00:51:45.144Z,7.21
2022-11-30T00:52:45.134Z,7.07
2022-11-30T00:53:45.127Z,7.05
2022-11-30T00:54:45.429Z,7.15
2022-11-30T00:55:45.119Z,7.14
2022-11-30T00:56:45.137Z,7.22
2022-11-30T00:57:45.133Z,7.33
2022-11-30T00:58:45.127Z,7.39
2022-11-30T00:59:45.124Z,7.39
2022-11-30T01:00:45.109Z,6.99
2022-11-30T01:01:45.180Z,7.06
2022-11-30T01:02:45.190Z,7.37
2022-11-30T01:03:45.120Z,7.16
2022-11-30T01:04:45.409Z,7.26
2022-11-30T01:05:45.107Z,7.23
2022-11-30T01:06:45.119Z,7.11
2022-11-30T01:07:45.199Z,6.96
2022-11-30T01:08:45.110Z,7.03
2022-11-30T01:09:45.115Z,7.04
2022-11-30T01:10:45.115Z,6.89
2022-11-30T01:11:45.111Z,6.81
2022-11-30T01:12:45.174Z,6.75
2022-11-30T01:13:45.122Z,6.86
2022-11-30T01:14:45.355Z,6.75
2022-11-30T01:15:45.265Z,6.85
2022-11-30T01:16:45.141Z,6.86
2022-11-30T01:17:45.114Z,7.01
2022-11-30T01:18:45.117Z,7.11
2022-11-30T01:19:45.108Z,7.11
2022-11-30T01:20:45.110Z,7.05
2022-11-30T01:21:45.111Z,7.05
2022-11-30T01:22:45.113Z,7.1
2022-11-30T01:23:45.118Z,7.09
2022-11-30T01:24:45.563Z,7.13
2022-11-30T01:25:45.104Z,7.23
2022-11-30T01:26:45.122Z,7
2022-11-30T01:27:45.111Z,6.9
2022-11-30T01:28:45.124Z,6.94
2022-11-30T01:29:45.125Z,6.89
2022-11-30T01:30:45.184Z,6.92
2022-11-30T01:31:45.138Z,6.39
2022-11-30T01:32:45.121Z,6.85
2022-11-30T01:33:45.128Z,6.68
2022-11-30T01:34:45.517Z,6.69
2022-11-30T01:35:45.125Z,6.75
2022-11-30T01:36:45.116Z,6.63
2022-11-30T01:37:45.128Z,6.63
2022-11-30T01:38:45.147Z,6.57
2022-11-30T01:39:45.114Z,6.42
2022-11-30T01:40:45.197Z,6.45
2022-11-30T01:41:45.120Z,6.66
2022-11-30T01:42:45.119Z,6.56
2022-11-30T01:43:45.142Z,6.34
2022-11-30T01:44:45.465Z,6.26
2022-11-30T01:45:45.172Z,6.45
2022-11-30T01:46:45.140Z,6.42
2022-11-30T01:47:45.119Z,6.56
2022-11-30T01:48:45.136Z,6.41
2022-11-30T01:49:45.119Z,6.44
2022-11-30T01:50:45.124Z,6.43
2022-11-30T01:51:45.123Z,6.47
2022-11-30T01:52:45.118Z,6.45
2022-11-30T01:53:45.134Z,6.42
2022-11-30T01:54:45.426Z,6.48
2022-11-30T01:55:45.127Z,6.19
2022-11-30T01:56:45.111Z,6.37
2022-11-30T01:57:45.121Z,6.31
2022-11-30T01:58:45.133Z,6.47
2022-11-30T01:59:45.199Z,6.28
2022-11-30T02:00:45.111Z,6.24
2022-11-30T02:01:45.171Z,6.01
2022-11-30T02:02:45.192Z,6.33
2022-11-30T02:03:45.142Z,6.34
2022-11-30T02:04:45.385Z,6.34
2022-11-30T02:05:45.131Z,6.11
2022-11-30T02:06:45.128Z,6.36
2022-11-30T02:07:45.335Z,6.34
2022-11-30T02:08:45.198Z,6.07
2022-11-30T02:09:45.128Z,6.19
2022-11-30T02:10:45.138Z,6.06
2022-11-30T02:11:45.130Z,6.26
2022-11-30T02:12:45.115Z,6.35
2022-11-30T02:13:45.137Z,6.33
2022-11-30T02:14:45.333Z,6.1
2022-11-30T02:15:45.229Z,6.09
2022-11-30T02:16:45.128Z,6.16
2022-11-30T02:17:45.107Z,6.07
2022-11-30T02:18:45.136Z,6.1
2022-11-30T02:19:45.108Z,5.94
2022-11-30T02:20:45.106Z,6.05
2022-11-30T02:21:45.105Z,5.86
2022-11-30T02:22:45.106Z,6
2022-11-30T02:23:45.130Z,6.12
2022-11-30T02:24:45.409Z,5.99
2022-11-30T02:25:45.110Z,6.1
2022-11-30T02:26:45.117Z,5.95
2022-11-30T02:27:45.115Z,5.99
2022-11-30T02:28:45.119Z,6.03
2022-11-30T02:29:45.117Z,5.91
2022-11-30T02:30:45.218Z,5.88
2022-11-30T02:31:45.136Z,5.67
2022-11-30T02:32:45.106Z,5.89
2022-11-30T02:33:45.111Z,6.07
2022-11-30T02:34:45.340Z,5.92
2022-11-30T02:35:47.133Z,5.91
2022-11-30T02:36:45.108Z,6.14
2022-11-30T02:37:45.121Z,6.18
2022-11-30T02:38:45.123Z,6.04
2022-11-30T02:39:45.132Z,5.71
2022-11-30T02:40:45.125Z,5.95
2022-11-30T02:41:45.123Z,5.77
2022-11-30T02:42:45.130Z,5.92
2022-11-30T02:43:45.177Z,5.83
2022-11-30T02:44:45.549Z,5.67
2022-11-30T02:45:45.125Z,5.58
2022-11-30T02:46:45.202Z,5.49
2022-11-30T02:47:45.119Z,5.54
2022-11-30T02:48:45.119Z,5.82
2022-11-30T02:49:45.125Z,5.83
2022-11-30T02:50:45.111Z,5.95
2022-11-30T02:51:45.120Z,5.81
2022-11-30T02:52:45.124Z,5.63
2022-11-30T02:53:45.120Z,5.63
2022-11-30T02:54:45.304Z,5.85
2022-11-30T02:55:45.121Z,6.07
2022-11-30T02:56:45.114Z,6.1
2022-11-30T02:57:45.127Z,6.1
2022-11-30T02:58:45.125Z,5.99
2022-11-30T02:59:45.137Z,5.9
2022-11-30T03:00:45.106Z,5.83
2022-11-30T03:01:45.209Z,5.46
2022-11-30T03:02:45.179Z,5.96
2022-11-30T03:03:45.132Z,5.95
2022-11-30T03:04:45.312Z,5.77
2022-11-30T03:05:45.128Z,5.53
2022-11-30T03:06:45.116Z,5.7
2022-11-30T03:07:45.162Z,5.68
2022-11-30T03:08:45.125Z,5.74
2022-11-30T03:09:45.156Z,5.93
2022-11-30T03:10:45.131Z,5.98
2022-11-30T03:11:45.130Z,5.83
2022-11-30T03:12:45.166Z,5.77
2022-11-30T03:13:45.115Z,5.92
2022-11-30T03:14:45.623Z,5.91
2022-11-30T03:15:45.236Z,5.77
2022-11-30T03:16:45.138Z,5.74
2022-11-30T03:17:45.121Z,5.73
2022-11-30T03:18:45.153Z,5.74
2022-11-30T03:19:45.141Z,5.88
2022-11-30T03:20:45.125Z,5.74
2022-11-30T03:21:45.125Z,5.81
2022-11-30T03:22:45.126Z,5.87
2022-11-30T03:23:45.124Z,5.88
2022-11-30T03:24:45.566Z,5.74
2022-11-30T03:25:45.130Z,5.76
2022-11-30T03:26:45.112Z,5.82
2022-11-30T03:27:45.117Z,5.78
2022-11-30T03:28:45.120Z,5.78
2022-11-30T03:29:45.120Z,5.71
2022-11-30T03:30:45.217Z,5.72
2022-11-30T03:31:45.131Z,5.55
2022-11-30T03:32:45.130Z,5.65
2022-11-30T03:33:45.106Z,5.71
2022-11-30T03:34:45.569Z,5.69
2022-11-30T03:35:45.118Z,5.6
2022-11-30T03:36:45.108Z,5.53
2022-11-30T03:37:45.114Z,5.55
2022-11-30T03:38:45.110Z,5.81
2022-11-30T03:39:45.110Z,5.79
2022-11-30T03:40:45.181Z,5.67
2022-11-30T03:41:45.111Z,5.78
2022-11-30T03:42:45.110Z,5.75
2022-11-30T03:43:45.106Z,5.81
2022-11-30T03:44:45.559Z,5.83
2022-11-30T03:45:45.112Z,5.87
2022-11-30T03:46:45.215Z,5.9
2022-11-30T03:47:45.134Z,6.06
2022-11-30T03:48:45.107Z,5.98
2022-11-30T03:49:45.115Z,5.99
2022-11-30T03:50:45.118Z,6.03
2022-11-30T03:51:45.115Z,5.86
2022-11-30T03:52:45.111Z,5.83
2022-11-30T03:53:45.112Z,5.95
2022-11-30T03:54:45.537Z,5.91
2022-11-30T03:55:45.124Z,5.78
2022-11-30T03:56:45.139Z,5.89
2022-11-30T03:57:45.120Z,6
2022-11-30T03:58:45.125Z,6
2022-11-30T03:59:45.134Z,5.95
2022-11-30T04:00:45.111Z,5.83
2022-11-30T04:01:45.203Z,5.47
2022-11-30T04:02:45.308Z,5.76
2022-11-30T04:03:45.116Z,5.79
2022-11-30T04:04:45.570Z,5.92
2022-11-30T04:05:45.154Z,5.84
2022-11-30T04:06:45.141Z,5.95
2022-11-30T04:07:45.138Z,5.95
2022-11-30T04:08:45.123Z,5.81
2022-11-30T04:09:45.138Z,5.87
2022-11-30T04:10:45.124Z,5.9
2022-11-30T04:11:45.139Z,5.9
2022-11-30T04:12:45.126Z,5.82
2022-11-30T04:13:45.120Z,5.83
2022-11-30T04:14:45.529Z,5.8
2022-11-30T04:15:45.161Z,5.75
2022-11-30T04:16:45.137Z,5.46
2022-11-30T04:17:45.112Z,5.36
2022-11-30T04:18:45.120Z,5.51
2022-11-30T04:19:45.116Z,5.63
2022-11-30T04:20:45.119Z,5.59
2022-11-30T04:21:45.134Z,5.46
2022-11-30T04:22:45.127Z,5.35
2022-11-30T04:23:45.121Z,5.39
2022-11-30T04:24:45.430Z,5.42
2022-11-30T04:25:45.122Z,5.5
2022-11-30T04:26:45.127Z,5.54
2022-11-30T04:27:45.119Z,5.52
2022-11-30T04:28:45.111Z,5.37
2022-11-30T04:29:45.121Z,5.38
2022-11-30T04:30:45.110Z,5.33
2022-11-30T04:31:45.259Z,5.06
2022-11-30T04:32:45.130Z,5.17
2022-11-30T04:33:45.113Z,5.25
2022-11-30T04:34:45.498Z,5.33
2022-11-30T04:35:45.123Z,5.32
2022-11-30T04:36:45.150Z,5.41
2022-11-30T04:37:45.133Z,5.35
2022-11-30T04:38:45.132Z,5.35
2022-11-30T04:39:45.135Z,5.12
2022-11-30T04:40:45.120Z,5.07
2022-11-30T04:41:45.121Z,5.09
2022-11-30T04:42:45.192Z,5.05
2022-11-30T04:43:45.109Z,4.95
2022-11-30T04:44:45.317Z,4.95
2022-11-30T04:45:45.113Z,5.02
2022-11-30T04:46:45.163Z,5.14
2022-11-30T04:47:45.115Z,5.15
2022-11-30T04:48:45.110Z,5.23
2022-11-30T04:49:45.106Z,5.17
2022-11-30T04:50:45.105Z,5.16
2022-11-30T04:51:45.110Z,5.02
2022-11-30T04:52:45.113Z,5.08
2022-11-30T04:53:45.107Z,5.16
2022-11-30T04:54:45.467Z,5.19
2022-11-30T04:55:45.115Z,5.36
2022-11-30T04:56:45.117Z,5.18
2022-11-30T04:57:45.120Z,5.22
2022-11-30T04:58:45.106Z,5.23
2022-11-30T04:59:45.112Z,5.24
2022-11-30T05:00:45.107Z,5.28
2022-11-30T05:01:45.333Z,5.05
2022-11-30T05:02:50.692Z,5.29
2022-11-30T05:03:45.122Z,5.29
2022-11-30T05:04:45.514Z,5.32
2022-11-30T05:05:45.123Z,5.4
2022-11-30T05:06:45.118Z,5.4
2022-11-30T05:07:45.147Z,5.48
2022-11-30T05:08:45.117Z,5.45
2022-11-30T05:09:45.125Z,5.4
2022-11-30T05:10:50.197Z,5.4
2022-11-30T05:11:45.129Z,5.34
2022-11-30T05:12:45.135Z,5.43
2022-11-30T05:13:45.130Z,5.46
2022-11-30T05:14:45.823Z,5.45
2022-11-30T05:15:45.173Z,5.41
2022-11-30T05:16:45.132Z,5.4
2022-11-30T05:17:45.176Z,5.3
2022-11-30T05:18:45.120Z,5.39
2022-11-30T05:19:45.123Z,5.4
2022-11-30T05:20:45.110Z,5.4
2022-11-30T05:21:45.952Z,5.19
2022-11-30T05:22:45.137Z,5.31
2022-11-30T05:23:45.122Z,5.39
2022-11-30T05:24:45.302Z,5.43
2022-11-30T05:25:45.125Z,5.4
2022-11-30T05:26:45.125Z,5.47
2022-11-30T05:27:45.133Z,5.51
2022-11-30T05:28:45.106Z,5.55
2022-11-30T05:29:45.123Z,5.52
2022-11-30T05:30:45.126Z,5.34
2022-11-30T05:31:45.249Z,5.06
2022-11-30T05:32:45.120Z,5.11
2022-11-30T05:33:45.134Z,5.07
2022-11-30T05:34:51.227Z,5.17
2022-11-30T05:35:45.125Z,5.12
2022-11-30T05:36:45.127Z,5.24
2022-11-30T05:37:45.123Z,5.14
2022-11-30T05:38:45.122Z,5.11
2022-11-30T05:39:45.122Z,5.15
2022-11-30T05:40:45.111Z,5.21
2022-11-30T05:41:45.119Z,5.12
2022-11-30T05:42:45.113Z,5.07
2022-11-30T05:43:45.130Z,5.02
2022-11-30T05:44:45.657Z,5.02
2022-11-30T05:45:45.116Z,5.13
2022-11-30T05:46:45.145Z,5.08
2022-11-30T05:47:45.125Z,5.09
2022-11-30T05:48:45.135Z,5.11
2022-11-30T05:49:45.132Z,5.18
2022-11-30T05:50:45.109Z,5.26
2022-11-30T05:51:45.125Z,5.28
2022-11-30T05:52:45.117Z,5.19
2022-11-30T05:53:45.114Z,5.31
2022-11-30T05:54:45.288Z,5.31
2022-11-30T05:55:45.112Z,5.26
2022-11-30T05:56:47.914Z,5.2
2022-11-30T05:57:45.105Z,5.2
2022-11-30T05:58:45.113Z,5.19
2022-11-30T05:59:45.126Z,5.2
2022-11-30T06:00:45.113Z,5.14
2022-11-30T06:01:45.275Z,5.02
2022-11-30T06:02:45.203Z,5.22
2022-11-30T06:03:45.119Z,5.21
2022-11-30T06:04:45.472Z,4.98
2022-11-30T06:05:45.106Z,5.21
2022-11-30T06:06:45.104Z,5.2
2022-11-30T06:07:45.140Z,5.27
2022-11-30T06:08:45.111Z,5.15
2022-11-30T06:09:45.104Z,5.16
2022-11-30T06:10:45.110Z,5.25
2022-11-30T06:11:45.113Z,5.15
2022-11-30T06:12:45.110Z,5.15
2022-11-30T06:13:45.117Z,5.31
2022-11-30T06:14:45.616Z,5.25
2022-11-30T06:15:45.128Z,5.22
2022-11-30T06:16:45.190Z,5.25
2022-11-30T06:17:45.121Z,5.25
2022-11-30T06:18:45.130Z,5.17
2022-11-30T06:19:45.116Z,5.22
2022-11-30T06:20:45.110Z,5.29
2022-11-30T06:21:45.117Z,5.15
2022-11-30T06:22:45.176Z,5.27
2022-11-30T06:23:45.145Z,5.25
2022-11-30T06:24:45.594Z,5.24
2022-11-30T06:25:45.124Z,5.25
2022-11-30T06:26:45.111Z,5.25
2022-11-30T06:27:45.126Z,5.16
2022-11-30T06:28:48.143Z,5.2
2022-11-30T06:29:45.130Z,5.23
2022-11-30T06:30:45.109Z,5.23
2022-11-30T06:31:45.172Z,5.2
2022-11-30T06:32:45.124Z,4.96
2022-11-30T06:33:45.133Z,5.04
2022-11-30T06:34:45.484Z,5.07
2022-11-30T06:35:45.117Z,5.09
2022-11-30T06:36:45.128Z,5.09
2022-11-30T06:37:45.119Z,5.13
2022-11-30T06:38:45.131Z,5.18
2022-11-30T06:40:05.278Z,5.24
2022-11-30T06:40:45.109Z,5.24
2022-11-30T06:41:46.392Z,5.2
2022-11-30T06:42:45.120Z,5.2
2022-11-30T06:43:45.116Z,5.35
2022-11-30T06:44:45.474Z,5.23
2022-11-30T06:45:45.185Z,5.31
2022-11-30T06:46:45.135Z,5.28
2022-11-30T06:47:45.118Z,5.26
2022-11-30T06:48:45.120Z,5.22
2022-11-30T06:49:45.120Z,5.25
2022-11-30T06:50:49.878Z,5.29
2022-11-30T06:51:45.130Z,5.25
2022-11-30T06:52:45.116Z,5.33
2022-11-30T06:53:45.131Z,5.26
2022-11-30T06:54:45.551Z,5.22
2022-11-30T06:55:45.118Z,5.33
2022-11-30T06:56:45.114Z,5.44
2022-11-30T06:57:45.117Z,5.39
2022-11-30T06:58:45.117Z,5.44
2022-11-30T06:59:45.163Z,5.42
2022-11-30T07:00:45.143Z,5.42
2022-11-30T07:01:45.142Z,5.43
2022-11-30T07:02:45.121Z,5.37
2022-11-30T07:03:45.159Z,5.43
2022-11-30T07:04:45.370Z,5.47
2022-11-30T07:05:45.222Z,5.38
2022-11-30T07:06:45.108Z,5.45
2022-11-30T07:07:45.177Z,5.46
2022-11-30T07:08:45.110Z,5.48
2022-11-30T07:09:45.145Z,5.49
2022-11-30T07:10:45.107Z,5.42
2022-11-30T07:11:45.104Z,5.32
2022-11-30T07:12:45.112Z,5.43
2022-11-30T07:13:45.111Z,5.42
2022-11-30T07:14:45.516Z,5.46
2022-11-30T07:15:45.115Z,5.46
2022-11-30T07:16:45.155Z,5.46
2022-11-30T07:17:45.106Z,5.53
2022-11-30T07:18:45.105Z,5.51
2022-11-30T07:19:45.127Z,5.34
2022-11-30T07:20:45.137Z,5.34
2022-11-30T07:21:45.106Z,5.14
2022-11-30T07:22:45.104Z,5.2
2022-11-30T07:23:45.104Z,5.38
2022-11-30T07:24:45.393Z,5.3
2022-11-30T07:25:45.112Z,5.3
2022-11-30T07:26:45.125Z,5.48
2022-11-30T07:27:45.108Z,5.55
2022-11-30T07:28:45.127Z,5.46
2022-11-30T07:29:45.352Z,5.37
2022-11-30T07:30:45.134Z,5.37
2022-11-30T07:31:45.191Z,5.47
2022-11-30T07:32:45.126Z,5.5
2022-11-30T07:33:45.131Z,5.58
2022-11-30T07:34:45.369Z,5.38
2022-11-30T07:35:45.128Z,5.32
2022-11-30T07:36:45.122Z,5.34
2022-11-30T07:37:45.119Z,5.38
2022-11-30T07:38:45.129Z,5.38
2022-11-30T07:39:45.136Z,5.38
2022-11-30T07:40:45.115Z,5.32
2022-11-30T07:41:45.119Z,5.07
2022-11-30T07:42:45.117Z,5.16
2022-11-30T07:43:45.123Z,5.2
2022-11-30T07:44:45.469Z,5.32
2022-11-30T07:45:45.192Z,5.33
2022-11-30T07:46:45.135Z,5.47
2022-11-30T07:47:45.124Z,5.49
2022-11-30T07:48:45.126Z,5.3
2022-11-30T07:49:45.124Z,5.44
2022-11-30T07:50:45.116Z,5.44
2022-11-30T07:51:45.129Z,5.16
2022-11-30T07:52:45.132Z,5.08
2022-11-30T07:53:45.125Z,4.98
2022-11-30T07:54:45.346Z,5.05
2022-11-30T07:55:45.130Z,4.95
2022-11-30T07:56:45.114Z,5.04
2022-11-30T07:57:45.123Z,5.01
2022-11-30T07:58:45.124Z,5.07
2022-11-30T07:59:45.705Z,5.06
2022-11-30T08:00:45.194Z,5.09
2022-11-30T08:01:45.275Z,5.23
2022-11-30T08:02:45.123Z,5.29
2022-11-30T08:03:45.116Z,5.14
2022-11-30T08:04:45.501Z,5.1
2022-11-30T08:05:45.145Z,5.17
2022-11-30T08:06:45.118Z,5.23
2022-11-30T08:07:45.183Z,5.28
2022-11-30T08:08:45.132Z,5.37
2022-11-30T08:09:45.137Z,5.27
2022-11-30T08:10:45.133Z,5.46
2022-11-30T08:11:45.123Z,5.46
2022-11-30T08:12:45.124Z,5.44
2022-11-30T08:13:45.164Z,5.41
2022-11-30T08:15:17.955Z,5.39
2022-11-30T08:15:45.133Z,5.65
2022-11-30T08:16:45.217Z,5.62
2022-11-30T08:17:45.117Z,5.4
2022-11-30T08:18:45.118Z,5.4
2022-11-30T08:19:45.134Z,5.31
2022-11-30T08:20:49.804Z,5.31
2022-11-30T08:21:45.127Z,5.61
2022-11-30T08:22:45.112Z,5.67
2022-11-30T08:23:45.306Z,5.55
2022-11-30T08:24:45.105Z,5.59
2022-11-30T08:25:45.117Z,5.52
2022-11-30T08:26:45.177Z,5.65
2022-11-30T08:27:45.107Z,5.73
2022-11-30T08:28:45.119Z,5.65
2022-11-30T08:29:45.109Z,5.55
2022-11-30T08:30:45.143Z,5.61
2022-11-30T08:31:45.136Z,5.57
2022-11-30T08:32:45.109Z,5.57
2022-11-30T08:33:45.112Z,5.74
2022-11-30T08:34:45.281Z,5.75
2022-11-30T08:35:45.110Z,5.74
2022-11-30T08:36:48.767Z,5.74
2022-11-30T08:37:45.123Z,5.65
2022-11-30T08:38:45.106Z,5.52
2022-11-30T08:39:45.117Z,5.62
2022-11-30T08:40:45.104Z,5.68
2022-11-30T08:41:45.119Z,5.54
2022-11-30T08:42:45.103Z,5.09
2022-11-30T08:43:45.105Z,5.42
2022-11-30T08:44:45.122Z,5.37
2022-11-30T08:45:45.262Z,5.66
2022-11-30T08:46:52.438Z,5.68
2022-11-30T08:47:45.131Z,5.85
2022-11-30T08:48:45.119Z,5.93
2022-11-30T08:49:45.125Z,5.81
2022-11-30T08:50:45.143Z,6.06
2022-11-30T08:52:15.921Z,6.15
2022-11-30T08:52:45.117Z,6.13
2022-11-30T08:53:45.126Z,6.03
2022-11-30T08:54:45.919Z,6.12
2022-11-30T08:55:45.129Z,5.91
2022-11-30T08:56:45.133Z,6.13
2022-11-30T08:57:45.150Z,6.03
2022-11-30T08:58:45.139Z,6.1
2022-11-30T08:59:45.125Z,6.08
2022-11-30T09:00:45.125Z,6.18
2022-11-30T09:01:45.136Z,6.12
2022-11-30T09:02:45.171Z,6.18
2022-11-30T09:03:45.127Z,6.34
2022-11-30T09:04:45.125Z,6.44
2022-11-30T09:05:45.132Z,6.35
2022-11-30T09:06:45.133Z,6.33
2022-11-30T09:07:45.181Z,6.47
2022-11-30T09:08:45.192Z,6.55
2022-11-30T09:09:45.142Z,6.65
2022-11-30T09:10:45.126Z,6.6
2022-11-30T09:11:45.119Z,6.6
2022-11-30T09:12:45.133Z,6.94
2022-11-30T09:13:45.142Z,6.9
2022-11-30T09:14:45.350Z,6.95
2022-11-30T09:15:45.170Z,6.97
2022-11-30T09:16:45.137Z,6.98
2022-11-30T09:17:45.131Z,7.13
2022-11-30T09:18:45.157Z,7.17
2022-11-30T09:19:45.133Z,7.1
2022-11-30T09:20:45.118Z,7.32
2022-11-30T09:21:51.228Z,7.2
2022-11-30T09:22:45.114Z,7.21
2022-11-30T09:23:45.150Z,7.11
2022-11-30T09:24:45.825Z,7.08
2022-11-30T09:25:45.127Z,7.12
2022-11-30T09:26:45.125Z,7.14
2022-11-30T09:27:45.128Z,7.22
2022-11-30T09:28:45.120Z,7.16
2022-11-30T09:29:45.138Z,7.31
2022-11-30T09:30:45.181Z,7.25
2022-11-30T09:31:45.158Z,7.53
2022-11-30T09:32:45.118Z,7.62
2022-11-30T09:33:45.130Z,7.66
2022-11-30T09:34:45.400Z,7.65
2022-11-30T09:35:45.125Z,7.92
2022-11-30T09:36:45.105Z,7.87
2022-11-30T09:37:45.127Z,7.64
2022-11-30T09:38:45.154Z,7.81
2022-11-30T09:39:45.109Z,7.86
2022-11-30T09:40:45.113Z,7.96
2022-11-30T09:41:45.106Z,8.2
2022-11-30T09:42:45.112Z,8.05
2022-11-30T09:43:45.131Z,8.16
2022-11-30T09:44:52.802Z,8.17
2022-11-30T09:45:51.577Z,8.17
2022-11-30T09:46:51.531Z,8.3
2022-11-30T09:47:51.529Z,8.23
2022-11-30T09:48:51.538Z,8.12
2022-11-30T09:49:51.536Z,8
2022-11-30T09:50:51.525Z,8.15
2022-11-30T09:51:51.522Z,8.11
2022-11-30T09:52:51.514Z,8.04
2022-11-30T09:53:51.541Z,8.08
2022-11-30T09:54:51.522Z,8.11
2022-11-30T09:55:51.513Z,7.96
2022-11-30T09:56:51.519Z,8
2022-11-30T09:57:51.563Z,7.98
2022-11-30T09:58:51.546Z,7.93
2022-11-30T09:59:51.528Z,7.83
2022-11-30T10:00:51.523Z,7.79
2022-11-30T10:01:56.656Z,7.83
2022-11-30T10:02:51.729Z,7.98
2022-11-30T10:03:51.643Z,7.95
2022-11-30T10:04:51.516Z,7.79
2022-11-30T10:05:51.519Z,7.88
2022-11-30T10:06:51.518Z,7.98
2022-11-30T10:07:51.643Z,7.78
2022-11-30T10:08:51.519Z,7.73
2022-11-30T10:10:09.430Z,7.71
2022-11-30T10:10:51.517Z,7.85
2022-11-30T10:11:51.516Z,7.92
2022-11-30T10:12:51.520Z,8.08
2022-11-30T10:13:51.528Z,8.26
2022-11-30T10:14:54.798Z,8.26
2022-11-30T10:15:51.557Z,8.21
2022-11-30T10:16:51.535Z,8.03
2022-11-30T10:17:51.515Z,8.14
2022-11-30T10:18:51.531Z,8.21
2022-11-30T10:19:51.530Z,8.36
2022-11-30T10:20:51.514Z,8.35
2022-11-30T10:21:51.507Z,8.44
2022-11-30T10:23:51.535Z,8.18
2022-11-30T10:24:51.514Z,8.31
2022-11-30T10:25:51.514Z,8.48
2022-11-30T10:26:51.495Z,8.59
2022-11-30T10:27:51.505Z,8.69
2022-11-30T10:28:51.669Z,8.62
2022-11-30T10:29:51.493Z,8.63
2022-11-30T10:30:51.567Z,8.36
2022-11-30T10:31:51.516Z,8.41
2022-11-30T10:32:51.496Z,8.6
2022-11-30T10:33:51.530Z,8.62
2022-11-30T10:34:51.502Z,8.62
2022-11-30T10:35:51.535Z,8.57
2022-11-30T10:36:51.513Z,8.65
2022-11-30T10:37:51.488Z,8.51
2022-11-30T10:38:51.511Z,8.55
2022-11-30T10:39:51.496Z,8.75
2022-11-30T10:40:51.492Z,8.83
2022-11-30T10:41:51.495Z,8.87
2022-11-30T10:42:51.494Z,8.74
2022-11-30T10:43:51.517Z,8.68
2022-11-30T10:44:51.502Z,8.47
2022-11-30T10:45:51.645Z,8.42
2022-11-30T10:46:51.560Z,8.5
2022-11-30T10:47:51.511Z,8.44
2022-11-30T10:48:51.545Z,8.62
2022-11-30T10:49:51.528Z,8.77
2022-11-30T10:50:51.509Z,8.79
2022-11-30T10:51:51.514Z,8.79
2022-11-30T10:52:51.510Z,8.51
2022-11-30T10:53:51.527Z,8.51
2022-11-30T10:54:51.515Z,8.78
2022-11-30T10:55:51.516Z,8.87
2022-11-30T10:56:51.513Z,8.89
2022-11-30T10:57:51.505Z,8.84
2022-11-30T10:58:51.524Z,8.89
2022-11-30T10:59:51.513Z,8.95
2022-11-30T11:00:51.508Z,9.03
2022-11-30T11:01:51.673Z,9.03
2022-11-30T11:02:51.561Z,9.34
2022-11-30T11:03:51.614Z,9.29
2022-11-30T11:04:51.516Z,9.49
2022-11-30T11:05:51.509Z,9.3
2022-11-30T11:06:51.524Z,9.22
2022-11-30T11:07:51.539Z,9.24
2022-11-30T11:08:51.514Z,9.55
2022-11-30T11:09:51.502Z,9.69
2022-11-30T11:10:51.560Z,9.51
2022-11-30T11:11:51.512Z,9.51
2022-11-30T11:12:51.516Z,9.5
2022-11-30T11:13:51.516Z,9.5
2022-11-30T11:14:51.513Z,9.9
2022-11-30T11:15:51.579Z,9.93
2022-11-30T11:16:51.521Z,9.82
2022-11-30T11:17:51.509Z,9.82
2022-11-30T11:18:51.516Z,9.59
2022-11-30T11:19:51.508Z,9.61
2022-11-30T11:20:55.591Z,9.79
2022-11-30T11:21:51.505Z,9.72
2022-11-30T11:22:51.531Z,9.67
2022-11-30T11:23:51.524Z,9.79
2022-11-30T11:24:51.511Z,9.81
2022-11-30T11:25:51.532Z,9.87
2022-11-30T11:26:51.524Z,9.84
2022-11-30T11:27:51.511Z,9.97
2022-11-30T11:28:51.523Z,10.2
2022-11-30T11:29:51.509Z,10.08
2022-11-30T11:30:51.529Z,10.11
2022-11-30T11:31:51.607Z,9.91
2022-11-30T11:32:51.515Z,9.95
2022-11-30T11:33:51.526Z,9.98
2022-11-30T11:34:51.697Z,9.96
2022-11-30T11:35:51.498Z,9.99
2022-11-30T11:36:51.486Z,9.92
2022-11-30T11:37:51.509Z,10.14
2022-11-30T11:38:51.512Z,10.14
2022-11-30T11:39:51.486Z,10.17
2022-11-30T11:40:51.491Z,10.17
2022-11-30T11:41:51.493Z,10.09
2022-11-30T11:42:51.496Z,9.99
2022-11-30T11:43:51.504Z,10.01
2022-11-30T11:44:51.498Z,9.99
2022-11-30T11:45:51.489Z,9.65
2022-11-30T11:46:51.625Z,9.59
2022-11-30T11:47:51.490Z,9.65
2022-11-30T11:48:51.515Z,9.49
2022-11-30T11:49:51.526Z,9.59
2022-11-30T11:51:06.025Z,9.52
2022-11-30T11:51:51.491Z,9.76
2022-11-30T11:52:51.492Z,9.73
2022-11-30T11:53:53.639Z,9.61
2022-11-30T11:54:51.507Z,9.61
2022-11-30T11:55:51.488Z,9.53
2022-11-30T11:56:51.491Z,9.6
2022-11-30T11:57:51.508Z,9.52
2022-11-30T11:58:51.529Z,9.42
2022-11-30T11:59:51.511Z,9.41
2022-11-30T12:00:57.633Z,9.46
2022-11-30T12:01:51.516Z,9.4
2022-11-30T12:02:51.549Z,9.62
2022-11-30T12:03:51.763Z,9.61
2022-11-30T12:04:51.510Z,9.69
2022-11-30T12:05:51.512Z,9.58
2022-11-30T12:06:51.508Z,9.45
2022-11-30T12:07:51.589Z,9.46
2022-11-30T12:08:51.523Z,9.4
2022-11-30T12:09:51.509Z,9.42
2022-11-30T12:10:52.769Z,9.62
2022-11-30T12:11:51.508Z,9.6
2022-11-30T12:12:54.854Z,9.54
2022-11-30T12:13:51.530Z,9.58
2022-11-30T12:14:51.512Z,9.41
2022-11-30T12:15:51.544Z,9.57
2022-11-30T12:16:51.519Z,9.44
2022-11-30T12:17:51.507Z,9.27
2022-11-30T12:18:51.538Z,9.42
2022-11-30T12:19:51.500Z,9.45
2022-11-30T12:20:51.503Z,9.5
2022-11-30T12:21:51.510Z,9.59
2022-11-30T12:22:51.503Z,9.7
2022-11-30T12:23:51.525Z,9.82
2022-11-30T12:24:51.513Z,9.82
2022-11-30T12:25:51.501Z,9.68
2022-11-30T12:26:51.511Z,9.82
2022-11-30T12:27:54.032Z,9.82
2022-11-30T12:28:51.518Z,9.79
2022-11-30T12:29:51.509Z,9.82
2022-11-30T12:30:51.561Z,9.63
2022-11-30T12:31:51.618Z,9.59
2022-11-30T12:32:51.511Z,9.32
2022-11-30T12:33:51.517Z,9.14
2022-11-30T12:34:51.521Z,9.09
2022-11-30T12:35:51.516Z,9.19
2022-11-30T12:36:51.500Z,9.28
2022-11-30T12:37:51.514Z,9.44
2022-11-30T12:38:51.567Z,9.43
2022-11-30T12:39:51.506Z,9.58
2022-11-30T12:40:51.505Z,9.6
2022-11-30T12:41:51.511Z,9.67
2022-11-30T12:42:51.504Z,9.53
2022-11-30T12:43:51.519Z,9.47
2022-11-30T12:44:51.510Z,9.63
2022-11-30T12:45:51.506Z,9.54
2022-11-30T12:46:51.562Z,9.65
2022-11-30T12:47:51.490Z,9.59
2022-11-30T12:48:51.514Z,9.56
2022-11-30T12:49:51.484Z,9.57
2022-11-30T12:50:51.493Z,9.42
2022-11-30T12:51:51.560Z,9.66
2022-11-30T12:52:51.515Z,9.76
2022-11-30T12:53:51.506Z,9.76
2022-11-30T12:54:51.503Z,9.64
2022-11-30T12:55:51.492Z,9.39
2022-11-30T12:56:51.491Z,9.47
2022-11-30T12:57:51.506Z,9.54
2022-11-30T12:58:51.512Z,9.51
2022-11-30T12:59:51.486Z,9.5
2022-11-30T13:00:51.493Z,9.51
2022-11-30T13:01:51.533Z,9.72
2022-11-30T13:02:51.494Z,9.76
2022-11-30T13:03:51.510Z,9.79
2022-11-30T13:04:57.948Z,9.39
2022-11-30T13:05:51.495Z,9.29
2022-11-30T13:06:51.495Z,9.13
2022-11-30T13:07:51.624Z,9.01
2022-11-30T13:08:51.514Z,9.01
2022-11-30T13:09:51.508Z,9.22
2022-11-30T13:10:51.509Z,9.11
2022-11-30T13:11:51.501Z,8.98
2022-11-30T13:12:51.509Z,8.96
2022-11-30T13:13:51.518Z,9.32
2022-11-30T13:14:51.498Z,9.4
2022-11-30T13:15:51.544Z,9.34
2022-11-30T13:16:51.585Z,9.29
2022-11-30T13:17:51.502Z,9.33
2022-11-30T13:18:51.522Z,9.25
2022-11-30T13:19:51.503Z,9.14
2022-11-30T13:20:51.502Z,8.97
2022-11-30T13:21:51.504Z,9.01
2022-11-30T13:22:51.534Z,9.22